createdAt,value
2019-04-11T00:01:34.215Z,22.33
2019-04-11T00:03:55.717Z,20.67
2019-04-11T00:06:28.285Z,22.13
2019-04-11T00:09:00.786Z,21.43
2019-04-11T00:11:35.773Z,20.53
2019-04-11T00:14:08.019Z,18.90
2019-04-11T00:16:41.531Z,18.40
2019-04-11T00:19:14.036Z,20.23
2019-04-11T00:21:46.758Z,18.20
2019-04-11T00:24:20.805Z,20.30
2019-04-11T00:26:56.905Z,21.40
2019-04-11T00:29:30.299Z,20.33
2019-04-11T00:32:04.989Z,19.67
2019-04-11T00:34:37.367Z,20.20
2019-04-11T00:37:10.719Z,19.47
2019-04-11T00:39:43.738Z,17.63
2019-04-11T00:42:16.642Z,19.37
2019-04-11T00:44:49.522Z,19.30
2019-04-11T00:47:22.744Z,20.17
2019-04-11T00:49:55.410Z,21.03
2019-04-11T00:52:27.986Z,20.63
2019-04-11T00:55:00.098Z,19.90
2019-04-11T00:57:32.805Z,18.70
2019-04-11T01:00:09.010Z,20.03
2019-04-11T01:02:43.275Z,19.87
2019-04-11T01:05:17.292Z,22.50
2019-04-11T01:07:49.893Z,20.37
2019-04-11T01:10:24.507Z,21.70
2019-04-11T01:12:57.297Z,19.83
2019-04-11T01:15:29.772Z,20.27
2019-04-11T01:18:03.524Z,19.37
2019-04-11T01:20:37.773Z,18.43
2019-04-11T01:23:11.035Z,17.60
2019-04-11T01:25:46.405Z,17.00
2019-04-11T01:28:19.321Z,18.67
2019-04-11T01:31:11.619Z,17.90
2019-04-11T01:33:44.292Z,19.90
2019-04-11T01:36:16.807Z,18.93
2019-04-11T01:38:50.930Z,17.87
2019-04-11T01:41:24.572Z,18.23
2019-04-11T01:44:02.146Z,19.57
2019-04-11T01:46:31.947Z,19.80
2019-04-11T01:49:10.141Z,19.13
2019-04-11T01:51:42.712Z,19.23
2019-04-11T01:54:15.337Z,18.23
2019-04-11T01:56:47.767Z,18.97
2019-04-11T01:59:21.535Z,20.20
2019-04-11T02:01:56.911Z,19.53
2019-04-11T02:04:32.080Z,17.50
2019-04-11T02:07:05.135Z,18.17
2019-04-11T02:09:37.997Z,17.97
2019-04-11T02:12:10.226Z,17.60
2019-04-11T02:14:43.827Z,17.27
2019-04-11T02:17:16.792Z,15.93
2019-04-11T02:19:50.256Z,15.80
2019-04-11T02:22:40.433Z,14.90
2019-04-11T02:25:28.293Z,15.03
2019-04-11T02:28:04.868Z,13.97
2019-04-11T02:30:41.210Z,13.40
2019-04-11T02:33:14.071Z,13.70
2019-04-11T02:35:49.249Z,12.63
2019-04-11T02:38:23.563Z,13.40
2019-04-11T02:40:57.835Z,13.33
2019-04-11T02:43:31.952Z,14.00
2019-04-11T02:46:11.769Z,13.27
2019-04-11T02:48:40.491Z,14.27
2019-04-11T02:51:14.619Z,13.10
2019-04-11T02:53:49.389Z,13.40
2019-04-11T02:56:23.762Z,11.77
2019-04-11T02:58:57.605Z,13.77
2019-04-11T03:01:31.724Z,13.10
2019-04-11T03:04:04.987Z,12.80
2019-04-11T03:06:39.670Z,12.47
2019-04-11T03:09:13.307Z,11.97
2019-04-11T03:11:47.231Z,13.23
2019-04-11T03:14:20.768Z,12.57
2019-04-11T03:17:02.505Z,12.87
2019-04-11T03:19:42.285Z,12.33
2019-04-11T03:22:03.316Z,13.70
2019-04-11T03:24:36.110Z,12.57
2019-04-11T03:27:10.051Z,13.03
2019-04-11T03:29:43.166Z,12.33
2019-04-11T03:33:08.021Z,12.47
2019-04-11T03:35:34.936Z,13.07
2019-04-11T03:37:55.112Z,12.93
2019-04-11T03:40:23.869Z,13.10
2019-04-11T03:42:51.213Z,12.50
2019-04-11T03:45:33.263Z,12.73
2019-04-11T03:48:02.355Z,13.47
2019-04-11T03:50:23.347Z,12.80
2019-04-11T03:52:53.888Z,14.83
2019-04-11T03:55:28.441Z,12.77
2019-04-11T03:58:03.633Z,14.27
2019-04-11T04:00:40.589Z,14.23
2019-04-11T04:03:11.405Z,12.83
2019-04-11T04:05:44.940Z,12.90
2019-04-11T04:08:20.330Z,11.50
2019-04-11T04:11:12.380Z,12.83
2019-04-11T04:13:48.220Z,12.57
2019-04-11T04:16:39.848Z,11.13
2019-04-11T04:19:10.846Z,12.07
2019-04-11T04:21:44.335Z,12.57
2019-04-11T04:24:32.113Z,13.17
2019-04-11T04:27:04.532Z,12.40
2019-04-11T04:29:37.987Z,12.23
2019-04-11T04:32:14.113Z,13.20
2019-04-11T04:34:49.057Z,13.10
2019-04-11T04:37:22.366Z,12.00
2019-04-11T04:40:13.222Z,12.63
2019-04-11T04:42:36.627Z,11.87
2019-04-11T04:45:07.945Z,12.87
2019-04-11T04:47:47.980Z,15.30
2019-04-11T04:50:15.469Z,17.37
2019-04-11T04:52:49.183Z,16.90
2019-04-11T04:55:23.410Z,16.23
2019-04-11T04:57:57.572Z,17.27
2019-04-11T05:00:31.989Z,18.13
2019-04-11T05:03:05.467Z,16.83
2019-04-11T05:05:38.850Z,16.90
2019-04-11T05:08:11.233Z,16.13
2019-04-11T05:10:44.948Z,17.23
2019-04-11T05:13:17.668Z,17.70
2019-04-11T05:16:02.763Z,18.80
2019-04-11T05:18:23.943Z,20.97
2019-04-11T05:20:56.982Z,20.87
2019-04-11T05:23:29.781Z,17.13
2019-04-11T05:26:03.398Z,17.27
2019-04-11T05:28:37.194Z,16.20
2019-04-11T05:31:10.204Z,15.67
2019-04-11T05:33:43.487Z,18.23
2019-04-11T05:36:16.609Z,18.43
2019-04-11T05:38:49.137Z,17.90
2019-04-11T05:41:23.042Z,16.27
2019-04-11T05:43:55.690Z,17.77
2019-04-11T05:46:35.473Z,18.17
2019-04-11T05:49:05.434Z,16.70
2019-04-11T05:51:41.632Z,15.60
2019-04-11T05:54:14.144Z,15.63
2019-04-11T05:56:52.043Z,11.73
2019-04-11T05:59:24.040Z,7.83
2019-04-11T06:02:05.257Z,9.33
2019-04-11T06:04:34.459Z,8.80
2019-04-11T06:07:23.771Z,8.03
2019-04-11T06:10:08.469Z,8.67
2019-04-11T06:12:45.539Z,8.63
2019-04-11T06:15:20.381Z,8.70
2019-04-11T06:17:54.543Z,8.47
2019-04-11T06:20:37.997Z,7.67
2019-04-11T06:23:12.868Z,6.83
2019-04-11T06:25:53.401Z,6.97
2019-04-11T06:28:28.735Z,7.37
2019-04-11T06:31:20.166Z,7.27
2019-04-11T06:33:58.782Z,7.10
2019-04-11T06:36:43.421Z,7.30
2019-04-11T06:39:18.947Z,6.33
2019-04-11T06:41:54.881Z,6.30
2019-04-11T06:44:32.274Z,6.80
2019-04-11T06:47:08.226Z,5.63
2019-04-11T06:49:46.681Z,5.47
2019-04-11T06:52:20.893Z,5.93
2019-04-11T06:54:56.054Z,6.43
2019-04-11T06:57:30.629Z,6.07
2019-04-11T07:00:05.243Z,6.43
2019-04-11T07:02:39.561Z,5.63
2019-04-11T07:05:13.987Z,5.63
2019-04-11T07:07:49.386Z,5.93
2019-04-11T07:10:39.015Z,6.00
2019-04-11T07:13:19.056Z,4.90
2019-04-11T07:15:52.775Z,4.63
2019-04-11T07:18:35.855Z,5.60
2019-04-11T07:21:10.594Z,6.40
2019-04-11T07:24:00.913Z,6.20
2019-04-11T07:26:35.156Z,5.90
2019-04-11T07:29:25.770Z,4.80
2019-04-11T07:32:09.389Z,7.87
2019-04-11T07:35:00.102Z,4.97
2019-04-11T07:37:34.370Z,5.07
2019-04-11T07:40:10.439Z,5.87
2019-04-11T07:42:52.785Z,4.67
2019-04-11T07:45:29.994Z,4.53
2019-04-11T07:48:07.265Z,4.03
2019-04-11T07:50:40.294Z,3.90
2019-04-11T07:53:14.404Z,2.87
2019-04-11T07:55:47.552Z,6.07
2019-04-11T07:58:30.872Z,3.93
2019-04-11T08:01:05.136Z,6.00
2019-04-11T08:03:51.303Z,4.47
2019-04-11T08:06:26.495Z,5.03
2019-04-11T08:09:15.505Z,4.33
2019-04-11T08:11:49.840Z,4.13
2019-04-11T08:14:24.560Z,6.27
2019-04-11T08:17:01.725Z,3.23
2019-04-11T08:19:35.771Z,2.80
2019-04-11T08:22:25.864Z,2.33
2019-04-11T08:25:00.853Z,3.50
2019-04-11T08:27:52.117Z,3.20
2019-04-11T08:30:16.971Z,3.10
2019-04-11T08:32:53.996Z,3.07
2019-04-11T08:35:40.031Z,3.20
2019-04-11T08:38:24.683Z,2.60
2019-04-11T08:41:01.035Z,2.93
2019-04-11T08:43:37.575Z,2.97
2019-04-11T08:46:22.618Z,3.00
2019-04-11T08:49:15.298Z,2.73
2019-04-11T08:51:49.540Z,2.80
2019-04-11T08:54:31.390Z,3.30
2019-04-11T08:57:04.698Z,2.73
2019-04-11T08:59:39.703Z,3.83
2019-04-11T09:02:12.806Z,2.77
2019-04-11T09:04:48.171Z,3.00
2019-04-11T09:07:35.942Z,3.00
2019-04-11T09:10:28.178Z,3.00
2019-04-11T09:13:15.300Z,3.13
2019-04-11T09:16:05.578Z,2.80
2019-04-11T09:18:39.852Z,3.20
2019-04-11T09:21:28.850Z,2.93
2019-04-11T09:24:02.928Z,2.90
2019-04-11T09:26:53.422Z,2.37
2019-04-11T09:29:39.919Z,2.30
2019-04-11T09:32:28.498Z,2.03
2019-04-11T09:35:10.037Z,2.90
2019-04-11T09:37:44.569Z,2.70
2019-04-11T09:40:34.789Z,2.23
2019-04-11T09:43:24.207Z,3.20
2019-04-11T09:46:16.592Z,4.20
2019-04-11T09:48:48.763Z,3.83
2019-04-11T09:51:31.763Z,3.27
2019-04-11T09:54:15.645Z,3.30
2019-04-11T09:56:49.734Z,2.90
2019-04-11T09:59:37.068Z,3.47
2019-04-11T10:02:12.715Z,3.90
2019-04-11T10:04:48.460Z,3.77
2019-04-11T10:07:27.916Z,3.17
2019-04-11T10:10:05.023Z,3.10
2019-04-11T10:12:40.581Z,3.20
2019-04-11T10:15:15.380Z,3.70
2019-04-11T10:18:19.562Z,3.03
2019-04-11T10:20:42.729Z,2.50
2019-04-11T10:23:32.811Z,2.73
2019-04-11T10:26:06.213Z,2.83
2019-04-11T10:28:56.651Z,3.00
2019-04-11T10:31:30.596Z,2.70
2019-04-11T10:34:15.009Z,3.23
2019-04-11T10:36:49.598Z,3.30
2019-04-11T10:39:35.412Z,3.10
2019-04-11T10:42:10.582Z,2.57
2019-04-11T10:44:54.111Z,2.40
2019-04-11T10:47:29.105Z,2.23
2019-04-11T10:50:03.513Z,2.90
2019-04-11T10:52:40.340Z,3.17
2019-04-11T10:55:15.602Z,2.67
2019-04-11T10:57:49.591Z,2.80
2019-04-11T11:00:27.275Z,2.80
2019-04-11T11:03:04.144Z,3.00
2019-04-11T11:05:40.550Z,2.43
2019-04-11T11:08:21.564Z,2.80
2019-04-11T11:10:55.945Z,3.20
2019-04-11T11:13:45.884Z,3.10
2019-04-11T11:16:20.349Z,3.97
2019-04-11T11:19:39.057Z,3.63
2019-04-11T11:21:43.731Z,2.77
2019-04-11T11:24:17.952Z,3.40
2019-04-11T11:26:53.729Z,2.73
2019-04-11T11:29:31.832Z,3.30
2019-04-11T11:32:07.056Z,2.97
2019-04-11T11:34:49.325Z,4.00
2019-04-11T11:37:35.387Z,3.07
2019-04-11T11:40:17.967Z,3.43
2019-04-11T11:42:50.584Z,3.17
2019-04-11T11:45:30.780Z,5.10
2019-04-11T11:48:10.696Z,4.73
2019-04-11T11:50:39.190Z,3.43
2019-04-11T11:53:14.764Z,3.50
2019-04-11T11:55:49.575Z,3.10
2019-04-11T11:58:25.779Z,3.37
2019-04-11T12:01:03.639Z,3.53
2019-04-11T12:03:35.082Z,3.43
2019-04-11T12:06:09.596Z,3.80
2019-04-11T12:09:00.399Z,2.83
2019-04-11T12:11:36.182Z,4.70
2019-04-11T12:14:20.549Z,5.50
2019-04-11T12:17:10.238Z,4.47
2019-04-11T12:19:52.294Z,3.30
2019-04-11T12:22:20.024Z,3.30
2019-04-11T12:25:07.187Z,3.47
2019-04-11T12:27:45.737Z,4.20
2019-04-11T12:30:23.495Z,3.67
2019-04-11T12:32:52.936Z,3.77
2019-04-11T12:35:36.661Z,3.40
2019-04-11T12:38:20.419Z,4.43
2019-04-11T12:41:10.753Z,3.93
2019-04-11T12:44:01.143Z,4.00
2019-04-11T12:46:51.239Z,4.50
2019-04-11T12:49:26.301Z,4.27
2019-04-11T12:52:16.587Z,4.23
2019-04-11T12:54:52.749Z,3.60
2019-04-11T12:57:42.966Z,3.83
2019-04-11T13:00:17.794Z,3.60
2019-04-11T13:03:02.218Z,2.93
2019-04-11T13:05:36.330Z,3.27
2019-04-11T13:08:08.220Z,3.70
2019-04-11T13:10:42.724Z,4.77
2019-04-11T13:13:28.604Z,4.07
2019-04-11T13:16:11.964Z,4.80
2019-04-11T13:18:57.830Z,5.73
2019-04-11T13:21:40.745Z,4.73
2019-04-11T13:24:15.066Z,4.50
2019-04-11T13:26:58.183Z,4.17
2019-04-11T13:29:42.751Z,4.67
2019-04-11T13:32:28.126Z,4.10
2019-04-11T13:35:09.511Z,4.63
2019-04-11T13:37:52.383Z,3.83
2019-04-11T13:40:30.015Z,3.50
2019-04-11T13:43:06.897Z,4.43
2019-04-11T13:45:47.130Z,4.33
2019-04-11T13:48:37.650Z,4.77
2019-04-11T13:51:11.929Z,3.30
2019-04-11T13:54:01.902Z,3.77
2019-04-11T13:56:52.752Z,10.47
2019-04-11T13:59:34.153Z,4.30
2019-04-11T14:02:13.889Z,4.87
2019-04-11T14:04:57.354Z,4.70
2019-04-11T14:07:31.246Z,5.03
2019-04-11T14:10:05.276Z,6.63
2019-04-11T14:12:39.546Z,9.83
2019-04-11T14:15:30.761Z,7.10
2019-04-11T14:18:05.172Z,8.70
2019-04-11T14:20:54.458Z,9.27
2019-04-11T14:23:41.878Z,7.50
2019-04-11T14:26:16.678Z,6.63
2019-04-11T14:28:50.721Z,4.10
2019-04-11T14:31:36.906Z,3.60
2019-04-11T14:34:13.383Z,6.20
2019-04-11T14:36:50.012Z,4.33
2019-04-11T14:39:27.671Z,4.50
2019-04-11T14:42:01.377Z,5.03
2019-04-11T14:44:38.440Z,5.33
2019-04-11T14:47:24.247Z,4.50
2019-04-11T14:50:05.384Z,4.60
2019-04-11T14:52:47.654Z,5.67
2019-04-11T14:55:21.918Z,6.20
2019-04-11T14:58:05.071Z,4.23
2019-04-11T15:00:39.051Z,9.60
2019-04-11T15:03:14.080Z,5.53
2019-04-11T15:05:48.166Z,10.77
2019-04-11T15:08:25.074Z,7.67
2019-04-11T15:10:59.403Z,13.10
2019-04-11T15:13:33.718Z,9.30
2019-04-11T15:16:27.386Z,9.87
2019-04-11T15:19:01.196Z,7.20
2019-04-11T15:21:51.491Z,13.00
2019-04-11T15:24:24.363Z,8.90
2019-04-11T15:27:14.871Z,10.73
2019-04-11T15:29:47.442Z,6.17
2019-04-11T15:32:33.633Z,15.30
2019-04-11T15:35:07.647Z,16.97
2019-04-11T15:37:42.021Z,6.10
2019-04-11T15:40:17.297Z,5.70
2019-04-11T15:42:55.415Z,10.70
2019-04-11T15:45:32.283Z,24.17
2019-04-11T15:48:23.457Z,21.03
2019-04-11T15:51:06.719Z,11.03
2019-04-11T15:53:46.988Z,17.00
2019-04-11T15:56:41.687Z,21.60
2019-04-11T15:59:13.113Z,16.00
2019-04-11T16:02:04.060Z,12.47
2019-04-11T16:04:38.468Z,11.13
2019-04-11T16:07:13.596Z,10.00
2019-04-11T16:09:50.466Z,14.50
2019-04-11T16:12:40.663Z,14.47
2019-04-11T16:15:15.704Z,17.73
2019-04-11T16:18:04.761Z,15.30
2019-04-11T16:20:37.047Z,9.70
2019-04-11T16:23:13.956Z,11.90
2019-04-11T16:25:48.232Z,11.30
2019-04-11T16:28:22.431Z,15.47
2019-04-11T16:30:56.654Z,23.03
2019-04-11T16:33:36.551Z,14.63
2019-04-11T16:36:19.492Z,9.73
2019-04-11T16:38:51.903Z,13.00
2019-04-11T16:41:42.593Z,15.47
2019-04-11T16:44:24.832Z,13.13
2019-04-11T16:47:04.848Z,8.40
2019-04-11T16:49:37.088Z,11.03
2019-04-11T16:52:09.301Z,7.73
2019-04-11T16:54:41.434Z,9.80
2019-04-11T16:57:14.317Z,20.13
2019-04-11T16:59:49.596Z,22.97
2019-04-11T17:02:21.850Z,18.70
2019-04-11T17:04:56.351Z,11.73
2019-04-11T17:07:46.466Z,13.37
2019-04-11T17:10:20.520Z,16.53
2019-04-11T17:12:53.878Z,14.07
2019-04-11T17:15:30.492Z,10.70
2019-04-11T17:18:02.194Z,9.87
2019-04-11T17:20:36.180Z,12.70
2019-04-11T17:23:09.802Z,15.10
2019-04-11T17:25:42.364Z,44.53
2019-04-11T17:28:14.957Z,21.73
2019-04-11T17:30:47.526Z,14.17
2019-04-11T17:33:19.818Z,12.67
2019-04-11T17:35:52.474Z,10.50
2019-04-11T17:38:25.164Z,12.90
2019-04-11T17:40:57.938Z,10.47
2019-04-11T17:43:31.028Z,21.70
2019-04-11T17:46:03.915Z,10.87
2019-04-11T17:48:36.706Z,12.67
2019-04-11T17:51:09.707Z,9.23
2019-04-11T17:53:42.773Z,11.87
2019-04-11T17:56:15.352Z,11.83
2019-04-11T17:58:49.327Z,10.50
2019-04-11T18:01:22.038Z,11.60
2019-04-11T18:03:54.721Z,10.80
2019-04-11T18:06:26.961Z,9.80
2019-04-11T18:08:59.647Z,9.40
2019-04-11T18:11:32.228Z,8.77
2019-04-11T18:14:04.915Z,7.93
2019-04-11T18:16:37.651Z,10.43
2019-04-11T18:19:10.182Z,9.10
2019-04-11T18:21:42.854Z,8.43
2019-04-11T18:24:15.052Z,8.80
2019-04-11T18:26:51.597Z,9.47
2019-04-11T18:29:23.048Z,9.57
2019-04-11T18:31:55.997Z,8.43
2019-04-11T18:34:41.082Z,9.23
2019-04-11T18:37:32.185Z,8.27
2019-04-11T18:40:23.816Z,8.47
2019-04-11T18:43:16.272Z,9.07
2019-04-11T18:46:08.845Z,10.43
2019-04-11T18:48:54.497Z,9.23
2019-04-11T18:51:30.513Z,9.13
2019-04-11T18:54:03.445Z,10.23
2019-04-11T18:56:43.825Z,11.07
2019-04-11T18:59:28.840Z,10.97
2019-04-11T19:02:14.772Z,10.20
2019-04-11T19:05:02.116Z,10.97
2019-04-11T19:07:42.827Z,11.67
2019-04-11T19:10:15.970Z,10.73
2019-04-11T19:12:48.432Z,11.83
2019-04-11T19:15:31.975Z,8.63
2019-04-11T19:18:08.197Z,9.43
2019-04-11T19:20:43.353Z,8.83
2019-04-11T19:23:16.571Z,9.83
2019-04-11T19:25:48.850Z,9.13
2019-04-11T19:28:24.907Z,9.60
2019-04-11T19:30:56.848Z,10.30
2019-04-11T19:33:40.020Z,10.17
2019-04-11T19:36:28.645Z,11.13
2019-04-11T19:39:19.107Z,9.43
2019-04-11T19:41:57.837Z,9.50
2019-04-11T19:44:31.972Z,9.17
2019-04-11T19:47:04.631Z,9.00
2019-04-11T19:49:37.397Z,8.77
2019-04-11T19:52:09.873Z,9.60
2019-04-11T19:54:42.207Z,8.93
2019-04-11T19:57:14.837Z,10.87
2019-04-11T19:59:47.173Z,13.67
2019-04-11T20:02:23.194Z,11.77
2019-04-11T20:04:57.660Z,11.33
2019-04-11T20:07:27.661Z,10.67
2019-04-11T20:10:01.491Z,10.20
2019-04-11T20:12:34.384Z,11.17
2019-04-11T20:15:08.840Z,9.77
2019-04-11T20:17:44.652Z,7.83
2019-04-11T20:20:16.104Z,10.33
2019-04-11T20:22:58.485Z,9.33
2019-04-11T20:25:24.140Z,9.77
2019-04-11T20:27:57.490Z,8.70
2019-04-11T20:30:34.562Z,8.70
2019-04-11T20:33:07.279Z,8.17
2019-04-11T20:35:40.598Z,7.57
2019-04-11T20:38:16.190Z,7.13
2019-04-11T20:40:53.284Z,8.37
2019-04-11T20:43:25.927Z,8.03
2019-04-11T20:46:00.422Z,7.73
2019-04-11T20:48:37.776Z,7.57
2019-04-11T20:51:10.683Z,7.70
2019-04-11T20:53:43.363Z,7.03
2019-04-11T20:56:23.920Z,7.70
2019-04-11T20:58:50.977Z,8.87
2019-04-11T21:01:23.788Z,8.53
2019-04-11T21:04:00.081Z,7.60
2019-04-11T21:06:32.038Z,7.40
2019-04-11T21:09:09.166Z,6.57
2019-04-11T21:11:42.348Z,7.60
2019-04-11T21:14:15.039Z,8.03
2019-04-11T21:16:47.741Z,7.17
2019-04-11T21:19:20.289Z,7.93
2019-04-11T21:21:53.586Z,8.10
2019-04-11T21:24:30.562Z,8.27
2019-04-11T21:27:01.400Z,7.87
2019-04-11T21:29:33.727Z,8.23
2019-04-11T21:32:06.348Z,8.53
2019-04-11T21:34:39.044Z,7.93
2019-04-11T21:37:12.527Z,8.40
2019-04-11T21:39:45.931Z,9.00
2019-04-11T21:42:18.222Z,9.10
2019-04-11T21:44:50.826Z,9.10
2019-04-11T21:47:23.453Z,8.17
2019-04-11T21:49:56.177Z,8.97
2019-04-11T21:52:28.906Z,10.07
2019-04-11T21:55:01.694Z,9.23
2019-04-11T21:57:34.002Z,10.00
2019-04-11T22:00:16.986Z,8.87
2019-04-11T22:02:52.006Z,8.70
2019-04-11T22:05:29.005Z,8.13
2019-04-11T22:08:00.949Z,8.10
2019-04-11T22:10:34.093Z,8.77
2019-04-11T22:13:09.842Z,8.77
2019-04-11T22:15:42.420Z,8.10
2019-04-11T22:18:16.689Z,8.53
2019-04-11T22:20:49.891Z,8.10
2019-04-11T22:23:22.468Z,7.67
2019-04-11T22:25:55.038Z,7.83
2019-04-11T22:28:27.815Z,7.23
2019-04-11T22:31:00.366Z,7.07
2019-04-11T22:33:34.125Z,6.53
2019-04-11T22:36:06.254Z,7.73
2019-04-11T22:38:38.954Z,7.00
2019-04-11T22:41:12.032Z,6.83
2019-04-11T22:43:44.710Z,6.13
2019-04-11T22:46:20.989Z,6.90
2019-04-11T22:48:51.717Z,7.23
2019-04-11T22:51:24.438Z,7.10
2019-04-11T22:54:00.492Z,6.63
2019-04-11T22:56:30.967Z,6.77
2019-04-11T22:59:03.251Z,5.93
2019-04-11T23:01:35.936Z,6.20
2019-04-11T23:04:08.604Z,6.77
2019-04-11T23:06:41.047Z,6.07
2019-04-11T23:09:14.071Z,5.63
2019-04-11T23:11:46.288Z,5.50
2019-04-11T23:14:19.314Z,6.03
2019-04-11T23:16:51.534Z,5.73
2019-04-11T23:19:24.271Z,5.00
2019-04-11T23:21:56.952Z,5.30
2019-04-11T23:24:29.625Z,5.20
2019-04-11T23:27:02.197Z,3.77
2019-04-11T23:29:34.888Z,3.50
2019-04-11T23:32:07.608Z,3.90
2019-04-11T23:34:40.443Z,4.00
2019-04-11T23:37:12.907Z,4.40
2019-04-11T23:39:45.594Z,4.33
2019-04-11T23:42:20.373Z,4.73
2019-04-11T23:44:53.110Z,4.10
2019-04-11T23:47:25.690Z,4.10
2019-04-11T23:50:00.317Z,3.90
2019-04-11T23:52:32.546Z,3.87
2019-04-11T23:55:05.972Z,4.20
2019-04-11T23:57:38.651Z,4.00
